TimeCST,TemperatureF,Dew PointF,Humidity,Sea Level PressureIn,VisibilityMPH,Wind Direction,Wind SpeedMPH,Gust SpeedMPH,PrecipitationIn,Events,Conditions,WindDirDegrees,DateUTC
12:53 AM,50.0,37.9,63,29.76,10.0,ENE,6.9,-,N/A,,Overcast,70,2013-02-25 06:53:00
1:53 AM,48.9,39.0,69,29.75,10.0,NE,8.1,-,N/A,,Overcast,50,2013-02-25 07:53:00
2:53 AM,50.0,39.0,66,29.74,10.0,NNE,4.6,-,N/A,,Overcast,20,2013-02-25 08:53:00
3:20 AM,50.0,39.2,66,29.71,10.0,ENE,8.1,-,N/A,,Overcast,70,2013-02-25 09:20:00
3:53 AM,51.1,39.9,66,29.69,10.0,NE,8.1,-,N/A,,Overcast,50,2013-02-25 09:53:00
4:53 AM,51.1,39.9,66,29.69,10.0,ENE,8.1,-,N/A,,Overcast,60,2013-02-25 10:53:00
5:53 AM,51.1,39.0,63,29.68,10.0,ENE,10.4,-,N/A,,Overcast,70,2013-02-25 11:53:00
6:53 AM,51.1,39.9,66,29.71,10.0,NE,8.1,-,N/A,,Overcast,50,2013-02-25 12:53:00
7:48 AM,51.8,41.0,67,29.73,10.0,NE,8.1,-,N/A,Thunderstorm,Overcast,50,2013-02-25 13:48:00
7:53 AM,52.0,41.0,66,29.73,10.0,NE,4.6,-,N/A,Thunderstorm,Thunderstorm,40,2013-02-25 13:53:00
8:12 AM,51.8,42.8,71,29.72,7.0,East,8.1,-,0.00,Rain-Thunderstorm,Light Rain,80,2013-02-25 14:12:00
8:33 AM,50.0,44.6,82,29.71,10.0,NE,9.2,-,0.00,,Overcast,50,2013-02-25 14:33:00
8:53 AM,51.1,44.1,77,29.71,10.0,ENE,8.1,-,0.00,,Overcast,60,2013-02-25 14:53:00
9:53 AM,53.1,45.0,74,29.68,10.0,East,9.2,-,N/A,,Overcast,80,2013-02-25 15:53:00
10:53 AM,54.0,46.9,77,29.64,10.0,East,11.5,19.6,N/A,,Overcast,100,2013-02-25 16:53:00
11:30 AM,55.4,48.2,77,29.60,10.0,East,12.7,-,N/A,,Overcast,100,2013-02-25 17:30:00
11:53 AM,55.0,48.9,80,29.58,10.0,East,8.1,-,N/A,,Overcast,90,2013-02-25 17:53:00
12:53 PM,55.9,50.0,80,29.52,10.0,East,13.8,19.6,N/A,,Overcast,90,2013-02-25 18:53:00
1:53 PM,55.9,51.1,84,29.43,10.0,East,13.8,-,N/A,,Overcast,100,2013-02-25 19:53:00
2:04 PM,55.4,51.8,88,29.41,10.0,East,16.1,23.0,N/A,Thunderstorm,Overcast,100,2013-02-25 20:04:00
2:25 PM,55.4,51.8,88,29.36,10.0,East,13.8,21.9,N/A,,Overcast,90,2013-02-25 20:25:00
2:40 PM,55.4,51.8,88,29.39,7.0,Variable,3.5,-,0.01,Rain-Thunderstorm,Light Thunderstorms and Rain,0,2013-02-25 20:40:00
2:53 PM,55.4,53.6,94,29.39,2.5,ESE,3.5,-,N/A,Rain-Thunderstorm,Thunderstorms and Rain,120,2013-02-25 20:53:00
3:03 PM,55.4,53.6,94,29.38,0.8,ESE,3.5,-,0.06,Rain-Thunderstorm,Heavy Thunderstorms and Rain,120,2013-02-25 21:03:00
3:15 PM,53.6,53.6,100,29.38,2.0,Calm,Calm,-,0.19,Rain-Thunderstorm,Light Thunderstorms and Rain,0,2013-02-25 21:15:00
3:25 PM,53.6,53.6,100,29.41,3.0,West,6.9,-,0.27,Thunderstorm,Overcast,270,2013-02-25 21:25:00
3:38 PM,53.6,53.6,100,29.43,4.0,West,10.4,-,0.31,Rain,Light Rain,270,2013-02-25 21:38:00
3:53 PM,55.0,54.0,96,29.42,4.0,WNW,5.8,-,0.32,Rain,Light Rain,300,2013-02-25 21:53:00
4:03 PM,55.4,53.6,94,29.40,4.0,NNE,3.5,-,0.00,Rain,Light Rain,30,2013-02-25 22:03:00
4:25 PM,55.4,53.6,94,29.40,2.5,WNW,8.1,-,0.02,Rain,Light Rain,300,2013-02-25 22:25:00
4:32 PM,55.4,53.6,94,29.40,6.0,NW,8.1,-,0.02,Rain,Light Rain,320,2013-02-25 22:32:00
4:43 PM,55.4,53.6,94,29.40,9.0,NNW,8.1,-,0.02,,Overcast,340,2013-02-25 22:43:00
4:53 PM,55.0,54.0,96,29.40,10.0,NNW,6.9,-,0.02,,Overcast,340,2013-02-25 22:53:00
5:47 PM,53.6,53.6,100,29.40,1.5,Calm,Calm,-,N/A,,Overcast,0,2013-02-25 23:47:00
5:53 PM,54.0,53.1,97,29.40,0.5,WSW,3.5,-,N/A,Fog,Fog,250,2013-02-25 23:53:00
6:01 PM,53.6,53.6,100,29.39,0.2,Calm,Calm,-,N/A,Fog,Fog,0,2013-02-26 00:01:00
6:29 PM,53.6,53.6,100,29.42,0.5,WSW,6.9,-,N/A,Fog,Fog,250,2013-02-26 00:29:00
6:41 PM,53.6,53.6,100,29.43,1.8,West,6.9,-,0.00,Rain,Light Rain,270,2013-02-26 00:41:00
6:46 PM,53.6,53.6,100,29.43,3.0,West,6.9,-,0.00,Rain,Light Rain,270,2013-02-26 00:46:00
6:53 PM,54.0,53.1,97,29.42,8.0,West,5.8,-,0.00,,Overcast,280,2013-02-26 00:53:00
7:31 PM,53.6,51.8,94,29.43,10.0,WNW,4.6,-,N/A,,Overcast,290,2013-02-26 01:31:00
7:53 PM,52.0,51.1,97,29.43,9.0,WNW,3.5,-,N/A,,Scattered Clouds,290,2013-02-26 01:53:00
8:53 PM,48.9,48.0,97,29.43,3.0,Calm,Calm,-,N/A,,Clear,0,2013-02-26 02:53:00
8:57 PM,48.2,48.2,100,29.44,1.8,Calm,Calm,-,N/A,,Clear,0,2013-02-26 02:57:00
9:01 PM,48.2,48.2,100,29.44,0.8,Calm,Calm,-,N/A,,Mist,0,2013-02-26 03:01:00
9:12 PM,46.4,46.4,100,29.44,0.2,SSW,4.6,-,N/A,Fog,Fog,200,2013-02-26 03:12:00
9:28 PM,48.2,48.2,100,29.46,1.2,SW,4.6,-,N/A,,Mostly Cloudy,230,2013-02-26 03:28:00
9:30 PM,48.2,48.2,100,29.46,3.0,SSW,4.6,-,N/A,,Mostly Cloudy,210,2013-02-26 03:30:00
9:34 PM,48.2,48.2,100,29.46,7.0,SSW,5.8,-,N/A,,Scattered Clouds,210,2013-02-26 03:34:00
9:53 PM,48.0,46.0,93,29.47,10.0,WSW,9.2,-,N/A,,Clear,240,2013-02-26 03:53:00
10:53 PM,46.9,36.0,66,29.48,10.0,WSW,11.5,-,N/A,,Overcast,240,2013-02-26 04:53:00
11:53 PM,44.1,34.0,68,29.49,10.0,SW,9.2,-,N/A,,Clear,220,2013-02-26 05:53:00